sensor_id;sensor_type;location;lat;lon;timestamp;P1;durP1;ratioP1;P2;durP2;ratioP2
41629;SDS011;27322;49.488;8.480;2023-03-01T00:02:02;16.15;;;9.07;;
41629;SDS011;27322;49.488;8.480;2023-03-01T00:04:29;15.55;;;8.48;;
41629;SDS011;27322;49.488;8.480;2023-03-01T00:06:55;16.60;;;8.93;;
41629;SDS011;27322;49.488;8.480;2023-03-01T00:09:21;18.00;;;9.10;;
41629;SDS011;27322;49.488;8.480;2023-03-01T00:11:46;15.55;;;8.73;;
41629;SDS011;27322;49.488;8.480;2023-03-01T00:14:12;16.75;;;9.20;;
41629;SDS011;27322;49.488;8.480;2023-03-01T00:16:39;13.82;;;8.52;;
41629;SDS011;27322;49.488;8.480;2023-03-01T00:19:06;16.77;;;9.20;;
41629;SDS011;27322;49.488;8.480;2023-03-01T00:21:34;14.43;;;8.27;;
41629;SDS011;27322;49.488;8.480;2023-03-01T00:24:00;16.20;;;8.68;;
41629;SDS011;27322;49.488;8.480;2023-03-01T00:26:26;16.00;;;9.55;;
41629;SDS011;27322;49.488;8.480;2023-03-01T00:28:53;17.50;;;9.23;;
41629;SDS011;27322;49.488;8.480;2023-03-01T00:31:21;16.15;;;9.52;;
41629;SDS011;27322;49.488;8.480;2023-03-01T00:33:48;17.83;;;9.52;;
41629;SDS011;27322;49.488;8.480;2023-03-01T00:36:21;16.50;;;9.65;;
41629;SDS011;27322;49.488;8.480;2023-03-01T00:38:47;17.60;;;9.95;;
41629;SDS011;27322;49.488;8.480;2023-03-01T00:41:14;17.80;;;10.05;;
41629;SDS011;27322;49.488;8.480;2023-03-01T00:43:41;17.48;;;9.88;;
41629;SDS011;27322;49.488;8.480;2023-03-01T00:46:08;17.05;;;10.35;;
41629;SDS011;27322;49.488;8.480;2023-03-01T00:48:36;17.63;;;10.45;;
41629;SDS011;27322;49.488;8.480;2023-03-01T00:51:06;16.98;;;9.75;;
41629;SDS011;27322;49.488;8.480;2023-03-01T00:53:33;16.60;;;9.88;;
41629;SDS011;27322;49.488;8.480;2023-03-01T00:56:00;19.70;;;10.52;;
41629;SDS011;27322;49.488;8.480;2023-03-01T00:58:26;17.65;;;9.40;;
41629;SDS011;27322;49.488;8.480;2023-03-01T01:00:51;17.13;;;9.70;;
41629;SDS011;27322;49.488;8.480;2023-03-01T01:03:17;18.95;;;9.85;;
41629;SDS011;27322;49.488;8.480;2023-03-01T01:05:43;18.27;;;9.95;;
41629;SDS011;27322;49.488;8.480;2023-03-01T01:08:09;15.98;;;9.50;;
41629;SDS011;27322;49.488;8.480;2023-03-01T01:10:35;16.58;;;9.40;;
41629;SDS011;27322;49.488;8.480;2023-03-01T01:13:00;15.25;;;8.98;;
41629;SDS011;27322;49.488;8.480;2023-03-01T01:15:26;16.27;;;9.55;;
41629;SDS011;27322;49.488;8.480;2023-03-01T01:17:52;18.60;;;10.40;;
41629;SDS011;27322;49.488;8.480;2023-03-01T01:20:17;18.35;;;10.13;;
41629;SDS011;27322;49.488;8.480;2023-03-01T01:22:43;17.02;;;10.07;;
41629;SDS011;27322;49.488;8.480;2023-03-01T01:25:09;15.65;;;9.70;;
41629;SDS011;27322;49.488;8.480;2023-03-01T01:27:35;17.17;;;10.60;;
41629;SDS011;27322;49.488;8.480;2023-03-01T01:30:01;16.25;;;10.27;;
41629;SDS011;27322;49.488;8.480;2023-03-01T01:32:26;17.83;;;10.25;;
41629;SDS011;27322;49.488;8.480;2023-03-01T01:34:52;16.33;;;10.02;;
41629;SDS011;27322;49.488;8.480;2023-03-01T01:37:17;17.65;;;10.13;;
41629;SDS011;27322;49.488;8.480;2023-03-01T01:39:43;18.65;;;10.48;;
41629;SDS011;27322;49.488;8.480;2023-03-01T01:42:12;19.17;;;10.88;;
41629;SDS011;27322;49.488;8.480;2023-03-01T01:44:42;18.63;;;10.82;;
41629;SDS011;27322;49.488;8.480;2023-03-01T01:47:17;18.00;;;10.73;;
41629;SDS011;27322;49.488;8.480;2023-03-01T01:49:49;20.35;;;11.35;;
41629;SDS011;27322;49.488;8.480;2023-03-01T01:52:22;19.27;;;11.13;;
41629;SDS011;27322;49.488;8.480;2023-03-01T01:57:46;20.48;;;10.93;;
41629;SDS011;27322;49.488;8.480;2023-03-01T02:00:22;21.92;;;11.90;;
41629;SDS011;27322;49.488;8.480;2023-03-01T02:02:50;22.23;;;11.90;;
41629;SDS011;27322;49.488;8.480;2023-03-01T02:08:01;20.25;;;11.70;;
41629;SDS011;27322;49.488;8.480;2023-03-01T02:10:27;21.33;;;12.50;;
41629;SDS011;27322;49.488;8.480;2023-03-01T02:12:53;19.33;;;11.88;;
41629;SDS011;27322;49.488;8.480;2023-03-01T02:15:21;20.27;;;11.73;;
41629;SDS011;27322;49.488;8.480;2023-03-01T02:17:47;17.95;;;10.85;;
41629;SDS011;27322;49.488;8.480;2023-03-01T02:22:51;20.58;;;11.40;;
41629;SDS011;27322;49.488;8.480;2023-03-01T02:28:59;22.27;;;11.88;;
41629;SDS011;27322;49.488;8.480;2023-03-01T02:30:58;24.60;;;12.50;;
41629;SDS011;27322;49.488;8.480;2023-03-01T02:33:42;19.15;;;11.57;;
41629;SDS011;27322;49.488;8.480;2023-03-01T02:36:12;19.00;;;11.05;;
41629;SDS011;27322;49.488;8.480;2023-03-01T02:38:42;21.85;;;11.95;;
41629;SDS011;27322;49.488;8.480;2023-03-01T02:41:08;21.25;;;11.88;;
41629;SDS011;27322;49.488;8.480;2023-03-01T02:43:38;20.48;;;12.02;;
41629;SDS011;27322;49.488;8.480;2023-03-01T02:46:05;18.73;;;11.20;;
41629;SDS011;27322;49.488;8.480;2023-03-01T02:51:34;19.50;;;10.95;;
41629;SDS011;27322;49.488;8.480;2023-03-01T02:54:25;21.23;;;11.60;;
41629;SDS011;27322;49.488;8.480;2023-03-01T02:57:01;19.88;;;11.30;;
41629;SDS011;27322;49.488;8.480;2023-03-01T02:59:29;21.40;;;11.68;;
41629;SDS011;27322;49.488;8.480;2023-03-01T03:01:59;22.10;;;12.45;;
41629;SDS011;27322;49.488;8.480;2023-03-01T03:04:25;20.00;;;12.10;;
41629;SDS011;27322;49.488;8.480;2023-03-01T03:06:51;23.33;;;12.50;;
41629;SDS011;27322;49.488;8.480;2023-03-01T03:09:17;21.42;;;12.10;;
41629;SDS011;27322;49.488;8.480;2023-03-01T03:11:43;23.55;;;13.48;;
41629;SDS011;27322;49.488;8.480;2023-03-01T03:14:10;22.95;;;12.85;;
41629;SDS011;27322;49.488;8.480;2023-03-01T03:16:44;22.77;;;13.48;;
41629;SDS011;27322;49.488;8.480;2023-03-01T03:19:12;22.30;;;12.63;;
41629;SDS011;27322;49.488;8.480;2023-03-01T03:21:38;20.98;;;12.48;;
41629;SDS011;27322;49.488;8.480;2023-03-01T03:24:04;22.08;;;12.40;;
41629;SDS011;27322;49.488;8.480;2023-03-01T03:26:30;22.13;;;11.98;;
41629;SDS011;27322;49.488;8.480;2023-03-01T03:28:57;20.80;;;11.68;;
41629;SDS011;27322;49.488;8.480;2023-03-01T03:31:22;19.48;;;11.77;;
41629;SDS011;27322;49.488;8.480;2023-03-01T03:33:48;21.35;;;12.00;;
41629;SDS011;27322;49.488;8.480;2023-03-01T03:36:17;19.80;;;12.32;;
41629;SDS011;27322;49.488;8.480;2023-03-01T03:38:45;21.77;;;12.57;;
41629;SDS011;27322;49.488;8.480;2023-03-01T03:41:12;19.65;;;11.68;;
41629;SDS011;27322;49.488;8.480;2023-03-01T03:43:38;21.33;;;13.25;;
41629;SDS011;27322;49.488;8.480;2023-03-01T03:46:05;24.75;;;13.60;;
41629;SDS011;27322;49.488;8.480;2023-03-01T03:48:35;21.88;;;13.05;;
41629;SDS011;27322;49.488;8.480;2023-03-01T03:51:02;23.88;;;13.20;;
41629;SDS011;27322;49.488;8.480;2023-03-01T03:53:31;19.25;;;11.82;;
41629;SDS011;27322;49.488;8.480;2023-03-01T03:55:57;24.63;;;12.70;;
41629;SDS011;27322;49.488;8.480;2023-03-01T03:58:23;23.25;;;13.15;;
41629;SDS011;27322;49.488;8.480;2023-03-01T04:00:51;24.13;;;12.60;;
41629;SDS011;27322;49.488;8.480;2023-03-01T04:03:19;24.90;;;12.75;;
41629;SDS011;27322;49.488;8.480;2023-03-01T04:05:45;24.85;;;13.20;;
41629;SDS011;27322;49.488;8.480;2023-03-01T04:08:12;22.00;;;12.70;;
41629;SDS011;27322;49.488;8.480;2023-03-01T04:13:05;22.83;;;13.45;;
41629;SDS011;27322;49.488;8.480;2023-03-01T04:15:32;21.75;;;12.77;;
41629;SDS011;27322;49.488;8.480;2023-03-01T04:17:58;23.98;;;13.23;;
41629;SDS011;27322;49.488;8.480;2023-03-01T04:20:26;24.13;;;12.50;;
41629;SDS011;27322;49.488;8.480;2023-03-01T04:23:01;21.88;;;12.90;;
41629;SDS011;27322;49.488;8.480;2023-03-01T04:25:38;24.38;;;12.55;;
41629;SDS011;27322;49.488;8.480;2023-03-01T04:28:10;23.52;;;13.02;;
41629;SDS011;27322;49.488;8.480;2023-03-01T04:30:36;23.20;;;12.82;;
41629;SDS011;27322;49.488;8.480;2023-03-01T04:33:03;25.30;;;12.90;;
41629;SDS011;27322;49.488;8.480;2023-03-01T04:35:33;25.25;;;13.07;;
41629;SDS011;27322;49.488;8.480;2023-03-01T04:38:00;24.45;;;12.98;;
41629;SDS011;27322;49.488;8.480;2023-03-01T04:40:25;23.35;;;13.23;;
41629;SDS011;27322;49.488;8.480;2023-03-01T04:42:51;24.27;;;13.10;;
41629;SDS011;27322;49.488;8.480;2023-03-01T04:45:17;23.90;;;13.27;;
41629;SDS011;27322;49.488;8.480;2023-03-01T04:47:44;22.35;;;13.10;;
41629;SDS011;27322;49.488;8.480;2023-03-01T04:50:12;22.33;;;13.10;;
41629;SDS011;27322;49.488;8.480;2023-03-01T04:52:39;23.00;;;13.13;;
41629;SDS011;27322;49.488;8.480;2023-03-01T04:55:05;23.63;;;13.95;;
41629;SDS011;27322;49.488;8.480;2023-03-01T04:57:31;24.80;;;13.80;;
41629;SDS011;27322;49.488;8.480;2023-03-01T04:59:57;22.60;;;13.55;;
41629;SDS011;27322;49.488;8.480;2023-03-01T05:02:23;28.60;;;14.23;;
41629;SDS011;27322;49.488;8.480;2023-03-01T05:04:49;21.80;;;13.40;;
41629;SDS011;27322;49.488;8.480;2023-03-01T05:07:14;25.65;;;13.63;;
41629;SDS011;27322;49.488;8.480;2023-03-01T05:09:44;25.45;;;14.00;;
41629;SDS011;27322;49.488;8.480;2023-03-01T05:12:11;25.77;;;14.35;;
41629;SDS011;27322;49.488;8.480;2023-03-01T05:14:37;24.45;;;13.30;;
41629;SDS011;27322;49.488;8.480;2023-03-01T05:17:03;23.95;;;14.55;;
41629;SDS011;27322;49.488;8.480;2023-03-01T05:19:29;25.83;;;14.43;;
41629;SDS011;27322;49.488;8.480;2023-03-01T05:21:56;24.80;;;13.38;;
41629;SDS011;27322;49.488;8.480;2023-03-01T05:24:34;24.67;;;14.00;;
41629;SDS011;27322;49.488;8.480;2023-03-01T05:27:01;24.65;;;13.85;;
41629;SDS011;27322;49.488;8.480;2023-03-01T05:29:28;25.17;;;14.35;;
41629;SDS011;27322;49.488;8.480;2023-03-01T05:31:55;22.85;;;13.75;;
41629;SDS011;27322;49.488;8.480;2023-03-01T05:34:33;28.27;;;14.80;;
41629;SDS011;27322;49.488;8.480;2023-03-01T05:37:00;26.88;;;14.60;;
41629;SDS011;27322;49.488;8.480;2023-03-01T05:39:26;27.40;;;15.23;;
41629;SDS011;27322;49.488;8.480;2023-03-01T05:41:56;24.25;;;14.07;;
41629;SDS011;27322;49.488;8.480;2023-03-01T05:44:24;24.98;;;14.55;;
41629;SDS011;27322;49.488;8.480;2023-03-01T05:46:50;25.13;;;13.95;;
41629;SDS011;27322;49.488;8.480;2023-03-01T05:49:16;26.30;;;14.10;;
41629;SDS011;27322;49.488;8.480;2023-03-01T05:51:42;27.52;;;14.48;;
41629;SDS011;27322;49.488;8.480;2023-03-01T05:54:12;26.52;;;14.88;;
41629;SDS011;27322;49.488;8.480;2023-03-01T05:56:38;26.17;;;14.80;;
41629;SDS011;27322;49.488;8.480;2023-03-01T05:59:04;22.40;;;13.43;;
41629;SDS011;27322;49.488;8.480;2023-03-01T06:01:30;24.48;;;14.32;;
41629;SDS011;27322;49.488;8.480;2023-03-01T06:03:59;28.35;;;14.80;;
41629;SDS011;27322;49.488;8.480;2023-03-01T06:06:25;26.15;;;14.90;;
41629;SDS011;27322;49.488;8.480;2023-03-01T06:08:51;24.92;;;14.77;;
41629;SDS011;27322;49.488;8.480;2023-03-01T06:11:18;25.33;;;14.40;;
41629;SDS011;27322;49.488;8.480;2023-03-01T06:13:44;26.10;;;15.50;;
41629;SDS011;27322;49.488;8.480;2023-03-01T06:16:13;24.98;;;14.43;;
41629;SDS011;27322;49.488;8.480;2023-03-01T06:18:39;27.98;;;16.02;;
41629;SDS011;27322;49.488;8.480;2023-03-01T06:21:06;25.55;;;14.48;;
41629;SDS011;27322;49.488;8.480;2023-03-01T06:23:33;24.55;;;14.02;;
41629;SDS011;27322;49.488;8.480;2023-03-01T06:25:59;23.88;;;14.55;;
41629;SDS011;27322;49.488;8.480;2023-03-01T06:28:25;24.63;;;14.43;;
41629;SDS011;27322;49.488;8.480;2023-03-01T06:30:51;26.33;;;14.68;;
41629;SDS011;27322;49.488;8.480;2023-03-01T06:33:17;25.23;;;15.05;;
41629;SDS011;27322;49.488;8.480;2023-03-01T06:35:45;24.98;;;15.20;;
41629;SDS011;27322;49.488;8.480;2023-03-01T06:38:11;28.30;;;14.65;;
41629;SDS011;27322;49.488;8.480;2023-03-01T06:40:40;26.25;;;15.63;;
41629;SDS011;27322;49.488;8.480;2023-03-01T06:43:06;30.63;;;14.63;;
41629;SDS011;27322;49.488;8.480;2023-03-01T06:45:32;27.63;;;14.88;;
41629;SDS011;27322;49.488;8.480;2023-03-01T06:48:04;26.73;;;15.00;;
41629;SDS011;27322;49.488;8.480;2023-03-01T06:50:31;24.73;;;14.68;;
41629;SDS011;27322;49.488;8.480;2023-03-01T06:52:57;28.10;;;15.38;;
41629;SDS011;27322;49.488;8.480;2023-03-01T06:55:23;27.40;;;15.55;;
41629;SDS011;27322;49.488;8.480;2023-03-01T06:57:53;25.20;;;14.25;;
41629;SDS011;27322;49.488;8.480;2023-03-01T07:00:22;26.20;;;15.13;;
41629;SDS011;27322;49.488;8.480;2023-03-01T07:02:49;26.40;;;15.38;;
41629;SDS011;27322;49.488;8.480;2023-03-01T07:05:14;28.17;;;15.35;;
41629;SDS011;27322;49.488;8.480;2023-03-01T07:07:40;28.75;;;15.43;;
41629;SDS011;27322;49.488;8.480;2023-03-01T07:10:06;27.75;;;15.68;;
41629;SDS011;27322;49.488;8.480;2023-03-01T07:12:32;31.75;;;15.48;;
41629;SDS011;27322;49.488;8.480;2023-03-01T07:14:58;26.25;;;15.05;;
41629;SDS011;27322;49.488;8.480;2023-03-01T07:17:23;24.30;;;14.43;;
41629;SDS011;27322;49.488;8.480;2023-03-01T07:19:49;27.63;;;15.80;;
41629;SDS011;27322;49.488;8.480;2023-03-01T07:22:15;27.50;;;15.73;;
41629;SDS011;27322;49.488;8.480;2023-03-01T07:24:41;27.65;;;15.15;;
41629;SDS011;27322;49.488;8.480;2023-03-01T07:27:06;27.52;;;14.88;;
41629;SDS011;27322;49.488;8.480;2023-03-01T07:29:32;25.35;;;14.15;;
41629;SDS011;27322;49.488;8.480;2023-03-01T07:31:58;22.05;;;13.88;;
41629;SDS011;27322;49.488;8.480;2023-03-01T07:34:23;25.58;;;14.15;;
41629;SDS011;27322;49.488;8.480;2023-03-01T07:36:49;29.60;;;14.45;;
41629;SDS011;27322;49.488;8.480;2023-03-01T07:39:15;26.70;;;15.43;;
41629;SDS011;27322;49.488;8.480;2023-03-01T07:41:40;26.85;;;14.82;;
41629;SDS011;27322;49.488;8.480;2023-03-01T07:44:06;24.08;;;13.43;;
41629;SDS011;27322;49.488;8.480;2023-03-01T07:46:32;26.40;;;14.45;;
41629;SDS011;27322;49.488;8.480;2023-03-01T07:48:57;25.08;;;14.65;;
41629;SDS011;27322;49.488;8.480;2023-03-01T07:51:23;28.00;;;15.05;;
41629;SDS011;27322;49.488;8.480;2023-03-01T07:53:49;25.95;;;14.50;;
41629;SDS011;27322;49.488;8.480;2023-03-01T07:56:15;24.38;;;14.02;;
41629;SDS011;27322;49.488;8.480;2023-03-01T07:58:44;26.52;;;15.50;;
41629;SDS011;27322;49.488;8.480;2023-03-01T08:01:12;25.25;;;15.63;;
41629;SDS011;27322;49.488;8.480;2023-03-01T08:03:39;27.52;;;14.32;;
41629;SDS011;27322;49.488;8.480;2023-03-01T08:06:06;25.95;;;14.27;;
41629;SDS011;27322;49.488;8.480;2023-03-01T08:08:33;25.75;;;14.90;;
41629;SDS011;27322;49.488;8.480;2023-03-01T08:10:59;25.92;;;15.18;;
41629;SDS011;27322;49.488;8.480;2023-03-01T08:13:26;23.88;;;14.68;;
41629;SDS011;27322;49.488;8.480;2023-03-01T08:15:52;27.92;;;14.77;;
41629;SDS011;27322;49.488;8.480;2023-03-01T08:18:18;24.38;;;14.57;;
41629;SDS011;27322;49.488;8.480;2023-03-01T08:20:45;26.95;;;14.57;;
41629;SDS011;27322;49.488;8.480;2023-03-01T08:23:11;24.30;;;15.07;;
41629;SDS011;27322;49.488;8.480;2023-03-01T08:25:37;24.25;;;14.63;;
41629;SDS011;27322;49.488;8.480;2023-03-01T08:28:03;30.08;;;14.95;;
41629;SDS011;27322;49.488;8.480;2023-03-01T08:30:29;25.77;;;14.85;;
41629;SDS011;27322;49.488;8.480;2023-03-01T08:32:54;24.42;;;14.73;;
41629;SDS011;27322;49.488;8.480;2023-03-01T08:35:20;26.10;;;14.07;;
41629;SDS011;27322;49.488;8.480;2023-03-01T08:37:46;26.52;;;14.50;;
41629;SDS011;27322;49.488;8.480;2023-03-01T08:40:12;28.38;;;15.15;;
41629;SDS011;27322;49.488;8.480;2023-03-01T08:42:38;25.10;;;15.25;;
41629;SDS011;27322;49.488;8.480;2023-03-01T08:45:05;27.45;;;15.13;;
41629;SDS011;27322;49.488;8.480;2023-03-01T08:47:32;25.27;;;15.35;;
41629;SDS011;27322;49.488;8.480;2023-03-01T08:49:58;23.17;;;14.65;;
41629;SDS011;27322;49.488;8.480;2023-03-01T08:52:25;26.95;;;15.25;;
41629;SDS011;27322;49.488;8.480;2023-03-01T08:54:51;24.65;;;15.30;;
41629;SDS011;27322;49.488;8.480;2023-03-01T08:57:17;23.30;;;14.65;;
41629;SDS011;27322;49.488;8.480;2023-03-01T08:59:43;28.67;;;15.40;;
41629;SDS011;27322;49.488;8.480;2023-03-01T09:02:12;27.17;;;15.60;;
41629;SDS011;27322;49.488;8.480;2023-03-01T09:04:42;24.67;;;15.00;;
41629;SDS011;27322;49.488;8.480;2023-03-01T09:07:09;26.98;;;14.98;;
41629;SDS011;27322;49.488;8.480;2023-03-01T09:09:35;26.98;;;15.45;;
41629;SDS011;27322;49.488;8.480;2023-03-01T09:12:01;24.15;;;13.68;;
41629;SDS011;27322;49.488;8.480;2023-03-01T09:14:27;23.73;;;14.60;;
41629;SDS011;27322;49.488;8.480;2023-03-01T09:16:53;28.05;;;15.52;;
41629;SDS011;27322;49.488;8.480;2023-03-01T09:19:18;26.73;;;13.93;;
41629;SDS011;27322;49.488;8.480;2023-03-01T09:21:44;26.17;;;15.48;;
41629;SDS011;27322;49.488;8.480;2023-03-01T09:24:17;26.13;;;15.70;;
41629;SDS011;27322;49.488;8.480;2023-03-01T09:26:44;25.63;;;14.60;;
41629;SDS011;27322;49.488;8.480;2023-03-01T09:29:13;25.10;;;14.43;;
41629;SDS011;27322;49.488;8.480;2023-03-01T09:31:39;26.27;;;15.48;;
41629;SDS011;27322;49.488;8.480;2023-03-01T09:34:05;26.27;;;15.65;;
41629;SDS011;27322;49.488;8.480;2023-03-01T09:36:32;24.58;;;14.77;;
41629;SDS011;27322;49.488;8.480;2023-03-01T09:38:58;25.92;;;14.98;;
41629;SDS011;27322;49.488;8.480;2023-03-01T09:44:27;27.45;;;15.32;;
41629;SDS011;27322;49.488;8.480;2023-03-01T09:46:55;24.48;;;14.82;;
41629;SDS011;27322;49.488;8.480;2023-03-01T09:49:23;28.17;;;16.70;;
41629;SDS011;27322;49.488;8.480;2023-03-01T10:02:23;27.52;;;16.02;;
41629;SDS011;27322;49.488;8.480;2023-03-01T10:05:11;26.60;;;15.57;;
41629;SDS011;27322;49.488;8.480;2023-03-01T10:08:14;25.88;;;15.15;;
41629;SDS011;27322;49.488;8.480;2023-03-01T10:10:52;27.73;;;15.55;;
41629;SDS011;27322;49.488;8.480;2023-03-01T10:16:04;25.73;;;15.63;;
41629;SDS011;27322;49.488;8.480;2023-03-01T10:18:38;26.55;;;15.75;;
41629;SDS011;27322;49.488;8.480;2023-03-01T10:21:14;25.50;;;15.27;;
41629;SDS011;27322;49.488;8.480;2023-03-01T10:23:42;26.42;;;15.90;;
41629;SDS011;27322;49.488;8.480;2023-03-01T10:29:10;23.60;;;15.65;;
41629;SDS011;27322;49.488;8.480;2023-03-01T10:31:43;25.48;;;15.25;;
41629;SDS011;27322;49.488;8.480;2023-03-01T10:36:38;25.83;;;15.07;;
41629;SDS011;27322;49.488;8.480;2023-03-01T10:39:11;25.33;;;15.93;;
41629;SDS011;27322;49.488;8.480;2023-03-01T10:41:44;25.23;;;15.52;;
41629;SDS011;27322;49.488;8.480;2023-03-01T10:44:45;24.50;;;14.80;;
41629;SDS011;27322;49.488;8.480;2023-03-01T10:47:22;24.05;;;15.32;;
41629;SDS011;27322;49.488;8.480;2023-03-01T10:52:20;25.30;;;15.65;;
41629;SDS011;27322;49.488;8.480;2023-03-01T10:54:56;26.58;;;15.35;;
41629;SDS011;27322;49.488;8.480;2023-03-01T10:57:27;27.35;;;16.65;;
41629;SDS011;27322;49.488;8.480;2023-03-01T11:00:22;27.02;;;16.05;;
41629;SDS011;27322;49.488;8.480;2023-03-01T11:02:51;24.67;;;15.48;;
41629;SDS011;27322;49.488;8.480;2023-03-01T11:05:23;27.60;;;16.15;;
41629;SDS011;27322;49.488;8.480;2023-03-01T11:07:52;25.30;;;15.80;;
41629;SDS011;27322;49.488;8.480;2023-03-01T11:10:21;22.80;;;14.73;;
41629;SDS011;27322;49.488;8.480;2023-03-01T11:12:50;26.30;;;15.73;;
41629;SDS011;27322;49.488;8.480;2023-03-01T11:15:21;23.63;;;15.13;;
41629;SDS011;27322;49.488;8.480;2023-03-01T11:17:50;25.27;;;15.45;;
41629;SDS011;27322;49.488;8.480;2023-03-01T11:20:27;26.95;;;15.88;;
41629;SDS011;27322;49.488;8.480;2023-03-01T11:23:01;24.85;;;14.77;;
41629;SDS011;27322;49.488;8.480;2023-03-01T11:25:37;25.67;;;15.50;;
41629;SDS011;27322;49.488;8.480;2023-03-01T11:28:07;24.92;;;15.80;;
41629;SDS011;27322;49.488;8.480;2023-03-01T11:30:39;23.42;;;15.75;;
41629;SDS011;27322;49.488;8.480;2023-03-01T11:36:10;21.95;;;15.05;;
41629;SDS011;27322;49.488;8.480;2023-03-01T11:39:05;24.48;;;15.57;;
41629;SDS011;27322;49.488;8.480;2023-03-01T11:41:37;24.85;;;15.27;;
41629;SDS011;27322;49.488;8.480;2023-03-01T11:44:25;24.08;;;15.43;;
41629;SDS011;27322;49.488;8.480;2023-03-01T12:07:48;25.10;;;15.13;;
41629;SDS011;27322;49.488;8.480;2023-03-01T12:10:37;25.13;;;15.18;;
41629;SDS011;27322;49.488;8.480;2023-03-01T12:21:17;22.23;;;14.35;;
41629;SDS011;27322;49.488;8.480;2023-03-01T12:24:30;23.23;;;14.73;;
41629;SDS011;27322;49.488;8.480;2023-03-01T12:29:38;26.30;;;15.75;;
41629;SDS011;27322;49.488;8.480;2023-03-01T12:40:55;22.67;;;14.07;;
41629;SDS011;27322;49.488;8.480;2023-03-01T12:43:37;24.27;;;14.20;;
41629;SDS011;27322;49.488;8.480;2023-03-01T12:49:37;22.88;;;14.02;;
41629;SDS011;27322;49.488;8.480;2023-03-01T12:55:06;24.17;;;14.27;;
41629;SDS011;27322;49.488;8.480;2023-03-01T12:57:46;20.35;;;13.27;;
41629;SDS011;27322;49.488;8.480;2023-03-01T13:03:39;24.38;;;13.90;;
41629;SDS011;27322;49.488;8.480;2023-03-01T13:08:49;21.00;;;13.32;;
41629;SDS011;27322;49.488;8.480;2023-03-01T13:11:19;22.02;;;14.00;;
41629;SDS011;27322;49.488;8.480;2023-03-01T13:13:46;20.50;;;12.80;;
41629;SDS011;27322;49.488;8.480;2023-03-01T13:19:13;20.95;;;13.10;;
41629;SDS011;27322;49.488;8.480;2023-03-01T13:21:42;21.35;;;12.70;;
41629;SDS011;27322;49.488;8.480;2023-03-01T13:29:58;22.85;;;12.95;;
41629;SDS011;27322;49.488;8.480;2023-03-01T13:32:35;21.95;;;13.00;;
41629;SDS011;27322;49.488;8.480;2023-03-01T13:37:43;20.55;;;12.30;;
41629;SDS011;27322;49.488;8.480;2023-03-01T13:42:47;22.73;;;12.63;;
41629;SDS011;27322;49.488;8.480;2023-03-01T13:45:36;20.40;;;12.25;;
41629;SDS011;27322;49.488;8.480;2023-03-01T13:50:48;21.10;;;12.63;;
41629;SDS011;27322;49.488;8.480;2023-03-01T13:53:35;19.45;;;12.43;;
41629;SDS011;27322;49.488;8.480;2023-03-01T13:56:18;19.27;;;12.13;;
41629;SDS011;27322;49.488;8.480;2023-03-01T13:58:53;19.80;;;12.40;;
41629;SDS011;27322;49.488;8.480;2023-03-01T14:01:32;19.77;;;11.70;;
41629;SDS011;27322;49.488;8.480;2023-03-01T14:03:59;17.83;;;11.80;;
41629;SDS011;27322;49.488;8.480;2023-03-01T14:06:31;20.95;;;12.05;;
41629;SDS011;27322;49.488;8.480;2023-03-01T14:09:02;18.92;;;11.15;;
41629;SDS011;27322;49.488;8.480;2023-03-01T14:20:00;17.83;;;10.48;;
41629;SDS011;27322;49.488;8.480;2023-03-01T14:25:01;16.92;;;10.57;;
41629;SDS011;27322;49.488;8.480;2023-03-01T14:27:35;18.23;;;11.00;;
41629;SDS011;27322;49.488;8.480;2023-03-01T14:30:10;17.25;;;9.75;;
41629;SDS011;27322;49.488;8.480;2023-03-01T14:32:42;18.27;;;9.82;;
41629;SDS011;27322;49.488;8.480;2023-03-01T14:35:24;16.40;;;10.15;;
41629;SDS011;27322;49.488;8.480;2023-03-01T14:37:57;19.05;;;10.75;;
41629;SDS011;27322;49.488;8.480;2023-03-01T14:40:33;18.17;;;11.02;;
41629;SDS011;27322;49.488;8.480;2023-03-01T14:43:01;16.00;;;9.95;;
41629;SDS011;27322;49.488;8.480;2023-03-01T14:45:36;18.10;;;10.25;;
41629;SDS011;27322;49.488;8.480;2023-03-01T14:48:02;17.70;;;10.73;;
41629;SDS011;27322;49.488;8.480;2023-03-01T14:50:32;15.50;;;10.18;;
41629;SDS011;27322;49.488;8.480;2023-03-01T14:53:05;16.65;;;10.55;;
41629;SDS011;27322;49.488;8.480;2023-03-01T14:55:38;16.02;;;9.82;;
41629;SDS011;27322;49.488;8.480;2023-03-01T14:58:11;16.90;;;10.30;;
41629;SDS011;27322;49.488;8.480;2023-03-01T15:00:38;17.23;;;9.55;;
41629;SDS011;27322;49.488;8.480;2023-03-01T15:03:13;15.38;;;9.52;;
41629;SDS011;27322;49.488;8.480;2023-03-01T15:05:45;16.52;;;10.15;;
41629;SDS011;27322;49.488;8.480;2023-03-01T15:08:16;16.70;;;9.55;;
41629;SDS011;27322;49.488;8.480;2023-03-01T15:10:55;21.30;;;10.82;;
41629;SDS011;27322;49.488;8.480;2023-03-01T15:13:41;16.60;;;10.40;;
41629;SDS011;27322;49.488;8.480;2023-03-01T15:18:33;18.80;;;10.57;;
41629;SDS011;27322;49.488;8.480;2023-03-01T15:21:08;17.42;;;9.98;;
41629;SDS011;27322;49.488;8.480;2023-03-01T15:23:40;16.30;;;9.88;;
41629;SDS011;27322;49.488;8.480;2023-03-01T15:26:05;14.93;;;8.98;;
41629;SDS011;27322;49.488;8.480;2023-03-01T15:28:37;15.75;;;9.23;;
41629;SDS011;27322;49.488;8.480;2023-03-01T15:34:24;17.25;;;9.18;;
41629;SDS011;27322;49.488;8.480;2023-03-01T15:36:58;17.05;;;8.98;;
41629;SDS011;27322;49.488;8.480;2023-03-01T15:39:41;15.13;;;9.02;;
41629;SDS011;27322;49.488;8.480;2023-03-01T15:42:36;16.20;;;9.23;;
41629;SDS011;27322;49.488;8.480;2023-03-01T15:47:47;16.10;;;8.80;;
41629;SDS011;27322;49.488;8.480;2023-03-01T15:50:36;17.23;;;9.32;;
41629;SDS011;27322;49.488;8.480;2023-03-01T15:53:05;14.77;;;9.00;;
41629;SDS011;27322;49.488;8.480;2023-03-01T15:55:36;13.68;;;8.40;;
41629;SDS011;27322;49.488;8.480;2023-03-01T16:00:40;15.82;;;8.48;;
41629;SDS011;27322;49.488;8.480;2023-03-01T16:03:06;14.98;;;8.48;;
41629;SDS011;27322;49.488;8.480;2023-03-01T16:05:35;16.50;;;8.95;;
41629;SDS011;27322;49.488;8.480;2023-03-01T16:08:01;14.57;;;8.02;;
41629;SDS011;27322;49.488;8.480;2023-03-01T16:10:28;26.52;;;9.70;;
41629;SDS011;27322;49.488;8.480;2023-03-01T16:12:55;17.30;;;9.63;;
41629;SDS011;27322;49.488;8.480;2023-03-01T16:15:21;15.88;;;8.48;;
41629;SDS011;27322;49.488;8.480;2023-03-01T16:17:47;14.70;;;8.40;;
41629;SDS011;27322;49.488;8.480;2023-03-01T16:20:13;14.48;;;8.20;;
41629;SDS011;27322;49.488;8.480;2023-03-01T16:22:42;13.68;;;7.90;;
41629;SDS011;27322;49.488;8.480;2023-03-01T16:25:12;15.30;;;8.32;;
41629;SDS011;27322;49.488;8.480;2023-03-01T16:27:43;14.07;;;8.55;;
41629;SDS011;27322;49.488;8.480;2023-03-01T16:30:14;14.57;;;8.27;;
41629;SDS011;27322;49.488;8.480;2023-03-01T16:32:41;17.15;;;8.70;;
41629;SDS011;27322;49.488;8.480;2023-03-01T16:35:09;16.05;;;8.20;;
41629;SDS011;27322;49.488;8.480;2023-03-01T16:37:36;13.93;;;8.25;;
41629;SDS011;27322;49.488;8.480;2023-03-01T16:40:03;14.90;;;7.97;;
41629;SDS011;27322;49.488;8.480;2023-03-01T16:42:36;14.63;;;8.25;;
41629;SDS011;27322;49.488;8.480;2023-03-01T16:45:02;13.80;;;8.10;;
41629;SDS011;27322;49.488;8.480;2023-03-01T16:47:28;13.60;;;7.55;;
41629;SDS011;27322;49.488;8.480;2023-03-01T16:49:54;13.38;;;7.82;;
41629;SDS011;27322;49.488;8.480;2023-03-01T16:52:20;12.68;;;7.60;;